sensor_id;sensor_type;location;lat;lon;timestamp;temperature;humidity
65044;DHT22;51617;48.158;16.464;2023-05-07T00:02:21;16.20;99.90
65044;DHT22;51617;48.158;16.464;2023-05-07T00:04:48;16.10;99.90
65044;DHT22;51617;48.158;16.464;2023-05-07T00:07:14;16.10;99.90
65044;DHT22;51617;48.158;16.464;2023-05-07T00:09:40;16.10;99.90
65044;DHT22;51617;48.158;16.464;2023-05-07T00:12:06;16.10;99.90
65044;DHT22;51617;48.158;16.464;2023-05-07T00:14:31;16.10;99.90
65044;DHT22;51617;48.158;16.464;2023-05-07T00:16:57;16.10;99.90
65044;DHT22;51617;48.158;16.464;2023-05-07T00:19:23;16.10;99.90
65044;DHT22;51617;48.158;16.464;2023-05-07T00:21:48;16.10;99.90
65044;DHT22;51617;48.158;16.464;2023-05-07T00:24:14;16.10;99.90
65044;DHT22;51617;48.158;16.464;2023-05-07T00:26:40;16.00;99.90
65044;DHT22;51617;48.158;16.464;2023-05-07T00:29:05;16.00;99.90
65044;DHT22;51617;48.158;16.464;2023-05-07T00:31:31;16.00;99.90
65044;DHT22;51617;48.158;16.464;2023-05-07T00:33:56;16.00;99.90
65044;DHT22;51617;48.158;16.464;2023-05-07T00:36:22;16.00;99.90
65044;DHT22;51617;48.158;16.464;2023-05-07T00:38:48;16.00;99.90
65044;DHT22;51617;48.158;16.464;2023-05-07T00:41:13;16.00;99.90
65044;DHT22;51617;48.158;16.464;2023-05-07T00:43:39;16.00;99.90
65044;DHT22;51617;48.158;16.464;2023-05-07T00:46:04;16.10;99.90
65044;DHT22;51617;48.158;16.464;2023-05-07T00:48:30;16.10;99.90
65044;DHT22;51617;48.158;16.464;2023-05-07T00:50:57;16.10;99.90
65044;DHT22;51617;48.158;16.464;2023-05-07T00:53:22;16.10;99.90
65044;DHT22;51617;48.158;16.464;2023-05-07T00:55:48;16.00;99.90
65044;DHT22;51617;48.158;16.464;2023-05-07T00:58:14;15.90;99.90
65044;DHT22;51617;48.158;16.464;2023-05-07T01:00:40;15.80;99.90
65044;DHT22;51617;48.158;16.464;2023-05-07T01:03:06;15.80;99.90
65044;DHT22;51617;48.158;16.464;2023-05-07T01:05:31;15.80;99.90
65044;DHT22;51617;48.158;16.464;2023-05-07T01:07:58;15.70;99.90
65044;DHT22;51617;48.158;16.464;2023-05-07T01:10:24;15.70;99.90
65044;DHT22;51617;48.158;16.464;2023-05-07T01:12:51;15.60;99.90
65044;DHT22;51617;48.158;16.464;2023-05-07T01:15:18;15.60;99.90
65044;DHT22;51617;48.158;16.464;2023-05-07T01:17:44;15.60;99.90
65044;DHT22;51617;48.158;16.464;2023-05-07T01:20:10;15.50;99.90
65044;DHT22;51617;48.158;16.464;2023-05-07T01:22:37;15.40;99.90
65044;DHT22;51617;48.158;16.464;2023-05-07T01:25:04;15.40;99.90
65044;DHT22;51617;48.158;16.464;2023-05-07T01:27:30;15.40;99.90
65044;DHT22;51617;48.158;16.464;2023-05-07T01:29:55;15.50;99.90
65044;DHT22;51617;48.158;16.464;2023-05-07T01:32:47;15.50;99.90
65044;DHT22;51617;48.158;16.464;2023-05-07T01:35:18;15.50;99.90
65044;DHT22;51617;48.158;16.464;2023-05-07T01:37:46;15.50;99.90
65044;DHT22;51617;48.158;16.464;2023-05-07T01:40:13;15.50;99.90
65044;DHT22;51617;48.158;16.464;2023-05-07T01:42:39;15.50;99.90
65044;DHT22;51617;48.158;16.464;2023-05-07T01:45:06;15.40;99.90
65044;DHT22;51617;48.158;16.464;2023-05-07T01:47:32;15.40;99.90
65044;DHT22;51617;48.158;16.464;2023-05-07T01:49:58;15.40;99.90
65044;DHT22;51617;48.158;16.464;2023-05-07T01:52:24;15.30;99.90
65044;DHT22;51617;48.158;16.464;2023-05-07T01:54:50;15.30;99.90
65044;DHT22;51617;48.158;16.464;2023-05-07T01:57:16;15.20;99.90
65044;DHT22;51617;48.158;16.464;2023-05-07T01:59:41;15.00;99.90
65044;DHT22;51617;48.158;16.464;2023-05-07T02:02:07;14.90;99.90
65044;DHT22;51617;48.158;16.464;2023-05-07T02:04:32;14.80;99.90
65044;DHT22;51617;48.158;16.464;2023-05-07T02:06:58;14.80;99.90
65044;DHT22;51617;48.158;16.464;2023-05-07T02:09:24;14.70;99.90
65044;DHT22;51617;48.158;16.464;2023-05-07T02:11:49;14.70;99.90
65044;DHT22;51617;48.158;16.464;2023-05-07T02:14:15;14.80;99.90
65044;DHT22;51617;48.158;16.464;2023-05-07T02:16:41;14.90;99.90
65044;DHT22;51617;48.158;16.464;2023-05-07T02:19:07;14.90;99.90
65044;DHT22;51617;48.158;16.464;2023-05-07T02:21:32;14.80;99.90
65044;DHT22;51617;48.158;16.464;2023-05-07T02:23:58;14.80;99.90
65044;DHT22;51617;48.158;16.464;2023-05-07T02:26:23;14.80;99.90
65044;DHT22;51617;48.158;16.464;2023-05-07T02:28:49;14.90;99.90
65044;DHT22;51617;48.158;16.464;2023-05-07T02:31:15;14.90;99.90
65044;DHT22;51617;48.158;16.464;2023-05-07T02:33:40;15.00;99.90
65044;DHT22;51617;48.158;16.464;2023-05-07T02:36:10;15.00;99.90
65044;DHT22;51617;48.158;16.464;2023-05-07T02:38:36;15.00;99.90
65044;DHT22;51617;48.158;16.464;2023-05-07T02:41:01;15.00;99.90
65044;DHT22;51617;48.158;16.464;2023-05-07T02:43:27;15.00;99.90
65044;DHT22;51617;48.158;16.464;2023-05-07T02:46:02;14.90;99.90
65044;DHT22;51617;48.158;16.464;2023-05-07T02:48:28;14.80;99.90
65044;DHT22;51617;48.158;16.464;2023-05-07T02:50:54;14.80;99.90
65044;DHT22;51617;48.158;16.464;2023-05-07T02:53:19;14.80;99.90
65044;DHT22;51617;48.158;16.464;2023-05-07T02:55:45;14.90;99.90
65044;DHT22;51617;48.158;16.464;2023-05-07T02:58:11;14.90;99.90
65044;DHT22;51617;48.158;16.464;2023-05-07T03:00:36;14.90;99.90
65044;DHT22;51617;48.158;16.464;2023-05-07T03:03:02;14.80;99.90
65044;DHT22;51617;48.158;16.464;2023-05-07T03:05:28;14.80;99.90
65044;DHT22;51617;48.158;16.464;2023-05-07T03:07:53;14.80;99.90
65044;DHT22;51617;48.158;16.464;2023-05-07T03:10:19;14.80;99.90
65044;DHT22;51617;48.158;16.464;2023-05-07T03:12:44;14.80;99.90
65044;DHT22;51617;48.158;16.464;2023-05-07T03:15:10;14.80;99.90
65044;DHT22;51617;48.158;16.464;2023-05-07T03:17:38;14.80;99.90
65044;DHT22;51617;48.158;16.464;2023-05-07T03:20:04;14.90;99.90
65044;DHT22;51617;48.158;16.464;2023-05-07T03:22:30;14.80;99.90
65044;DHT22;51617;48.158;16.464;2023-05-07T03:24:55;14.80;99.90
65044;DHT22;51617;48.158;16.464;2023-05-07T03:27:21;14.90;99.90
65044;DHT22;51617;48.158;16.464;2023-05-07T03:29:46;14.80;99.90
65044;DHT22;51617;48.158;16.464;2023-05-07T03:32:12;14.80;99.90
65044;DHT22;51617;48.158;16.464;2023-05-07T03:34:38;14.80;99.90
65044;DHT22;51617;48.158;16.464;2023-05-07T03:37:04;14.80;99.90
65044;DHT22;51617;48.158;16.464;2023-05-07T03:39:29;14.90;99.90
65044;DHT22;51617;48.158;16.464;2023-05-07T03:41:55;14.90;99.90
65044;DHT22;51617;48.158;16.464;2023-05-07T03:44:20;15.00;99.90
65044;DHT22;51617;48.158;16.464;2023-05-07T03:46:46;15.00;99.90
65044;DHT22;51617;48.158;16.464;2023-05-07T03:49:12;15.00;99.90
65044;DHT22;51617;48.158;16.464;2023-05-07T03:51:37;15.10;99.90
65044;DHT22;51617;48.158;16.464;2023-05-07T03:54:03;15.10;99.90
65044;DHT22;51617;48.158;16.464;2023-05-07T03:56:29;15.20;99.90
65044;DHT22;51617;48.158;16.464;2023-05-07T03:58:56;15.20;99.90
65044;DHT22;51617;48.158;16.464;2023-05-07T04:01:22;15.20;99.90
65044;DHT22;51617;48.158;16.464;2023-05-07T04:03:47;15.30;99.90
65044;DHT22;51617;48.158;16.464;2023-05-07T04:06:15;15.30;99.90
65044;DHT22;51617;48.158;16.464;2023-05-07T04:08:40;15.40;99.90
65044;DHT22;51617;48.158;16.464;2023-05-07T04:11:06;15.40;99.90
65044;DHT22;51617;48.158;16.464;2023-05-07T04:13:32;15.40;99.90
65044;DHT22;51617;48.158;16.464;2023-05-07T04:15:57;15.50;99.90
65044;DHT22;51617;48.158;16.464;2023-05-07T04:18:23;15.60;99.90
65044;DHT22;51617;48.158;16.464;2023-05-07T04:20:48;15.60;99.90
65044;DHT22;51617;48.158;16.464;2023-05-07T04:23:17;15.60;99.90
65044;DHT22;51617;48.158;16.464;2023-05-07T04:25:42;15.70;99.90
65044;DHT22;51617;48.158;16.464;2023-05-07T04:28:08;15.80;99.90
65044;DHT22;51617;48.158;16.464;2023-05-07T04:30:34;15.90;99.90
65044;DHT22;51617;48.158;16.464;2023-05-07T04:32:59;15.90;99.90
65044;DHT22;51617;48.158;16.464;2023-05-07T04:35:25;15.90;99.90
65044;DHT22;51617;48.158;16.464;2023-05-07T04:37:51;15.90;99.90
65044;DHT22;51617;48.158;16.464;2023-05-07T04:40:16;15.90;99.90
65044;DHT22;51617;48.158;16.464;2023-05-07T04:42:42;15.80;99.90
65044;DHT22;51617;48.158;16.464;2023-05-07T04:45:08;16.00;99.90
65044;DHT22;51617;48.158;16.464;2023-05-07T04:47:35;16.00;99.90
65044;DHT22;51617;48.158;16.464;2023-05-07T04:50:01;16.00;99.90
65044;DHT22;51617;48.158;16.464;2023-05-07T04:52:27;16.10;99.90
65044;DHT22;51617;48.158;16.464;2023-05-07T04:54:53;16.10;99.90
65044;DHT22;51617;48.158;16.464;2023-05-07T04:57:18;16.10;99.90
65044;DHT22;51617;48.158;16.464;2023-05-07T04:59:44;16.10;99.90
65044;DHT22;51617;48.158;16.464;2023-05-07T05:02:10;16.10;99.90
65044;DHT22;51617;48.158;16.464;2023-05-07T05:04:36;16.10;99.90
65044;DHT22;51617;48.158;16.464;2023-05-07T05:07:02;16.10;99.90
65044;DHT22;51617;48.158;16.464;2023-05-07T05:09:29;16.10;99.90
65044;DHT22;51617;48.158;16.464;2023-05-07T05:11:55;16.00;99.90
65044;DHT22;51617;48.158;16.464;2023-05-07T05:14:21;16.00;99.90
65044;DHT22;51617;48.158;16.464;2023-05-07T05:16:46;16.10;99.90
65044;DHT22;51617;48.158;16.464;2023-05-07T05:19:12;16.10;99.90
65044;DHT22;51617;48.158;16.464;2023-05-07T05:21:37;16.10;99.90
65044;DHT22;51617;48.158;16.464;2023-05-07T05:24:03;16.10;99.90
65044;DHT22;51617;48.158;16.464;2023-05-07T05:26:29;16.10;99.90
65044;DHT22;51617;48.158;16.464;2023-05-07T05:28:54;16.20;99.90
65044;DHT22;51617;48.158;16.464;2023-05-07T05:31:20;16.30;99.70
65044;DHT22;51617;48.158;16.464;2023-05-07T05:33:46;16.40;99.40
65044;DHT22;51617;48.158;16.464;2023-05-07T05:36:12;16.50;99.20
65044;DHT22;51617;48.158;16.464;2023-05-07T05:38:39;16.60;99.10
65044;DHT22;51617;48.158;16.464;2023-05-07T05:41:05;16.70;99.00
65044;DHT22;51617;48.158;16.464;2023-05-07T05:43:30;16.70;98.60
65044;DHT22;51617;48.158;16.464;2023-05-07T05:45:57;16.70;98.60
65044;DHT22;51617;48.158;16.464;2023-05-07T05:48:23;16.70;98.50
65044;DHT22;51617;48.158;16.464;2023-05-07T05:50:48;16.80;98.20
65044;DHT22;51617;48.158;16.464;2023-05-07T05:53:14;16.80;98.20
65044;DHT22;51617;48.158;16.464;2023-05-07T05:55:41;16.80;98.20
65044;DHT22;51617;48.158;16.464;2023-05-07T05:58:07;16.90;97.80
65044;DHT22;51617;48.158;16.464;2023-05-07T06:00:33;17.00;97.80
65044;DHT22;51617;48.158;16.464;2023-05-07T06:02:58;17.10;97.50
65044;DHT22;51617;48.158;16.464;2023-05-07T06:05:24;17.00;97.40
65044;DHT22;51617;48.158;16.464;2023-05-07T06:07:49;17.10;97.30
65044;DHT22;51617;48.158;16.464;2023-05-07T06:10:15;17.10;97.30
65044;DHT22;51617;48.158;16.464;2023-05-07T06:12:41;17.20;97.40
65044;DHT22;51617;48.158;16.464;2023-05-07T06:15:07;17.40;97.20
65044;DHT22;51617;48.158;16.464;2023-05-07T06:17:32;17.40;96.90
65044;DHT22;51617;48.158;16.464;2023-05-07T06:19:58;17.40;96.70
65044;DHT22;51617;48.158;16.464;2023-05-07T06:22:23;17.50;96.50
65044;DHT22;51617;48.158;16.464;2023-05-07T06:24:49;17.50;96.60
65044;DHT22;51617;48.158;16.464;2023-05-07T06:27:15;17.50;96.60
65044;DHT22;51617;48.158;16.464;2023-05-07T06:29:40;17.60;96.30
65044;DHT22;51617;48.158;16.464;2023-05-07T06:32:13;17.50;96.30
65044;DHT22;51617;48.158;16.464;2023-05-07T06:34:40;17.50;96.20
65044;DHT22;51617;48.158;16.464;2023-05-07T06:37:06;17.40;96.30
65044;DHT22;51617;48.158;16.464;2023-05-07T06:39:32;17.40;96.50
65044;DHT22;51617;48.158;16.464;2023-05-07T06:42:00;17.50;96.50
65044;DHT22;51617;48.158;16.464;2023-05-07T06:44:25;17.60;96.00
65044;DHT22;51617;48.158;16.464;2023-05-07T06:46:51;17.50;96.00
65044;DHT22;51617;48.158;16.464;2023-05-07T06:49:17;17.50;96.30
65044;DHT22;51617;48.158;16.464;2023-05-07T06:51:43;17.60;96.30
65044;DHT22;51617;48.158;16.464;2023-05-07T06:54:09;17.70;96.00
65044;DHT22;51617;48.158;16.464;2023-05-07T06:56:34;17.60;95.90
65044;DHT22;51617;48.158;16.464;2023-05-07T06:59:01;17.70;95.60
65044;DHT22;51617;48.158;16.464;2023-05-07T07:01:27;17.70;95.60
65044;DHT22;51617;48.158;16.464;2023-05-07T07:03:53;17.80;95.50
65044;DHT22;51617;48.158;16.464;2023-05-07T07:06:18;17.60;95.50
65044;DHT22;51617;48.158;16.464;2023-05-07T07:08:44;17.80;95.60
65044;DHT22;51617;48.158;16.464;2023-05-07T07:11:10;17.80;95.80
65044;DHT22;51617;48.158;16.464;2023-05-07T07:13:36;17.90;95.20
65044;DHT22;51617;48.158;16.464;2023-05-07T07:16:02;17.90;95.30
65044;DHT22;51617;48.158;16.464;2023-05-07T07:18:28;18.10;94.70
65044;DHT22;51617;48.158;16.464;2023-05-07T07:20:53;18.10;94.70
65044;DHT22;51617;48.158;16.464;2023-05-07T07:23:19;18.10;94.50
65044;DHT22;51617;48.158;16.464;2023-05-07T07:25:45;18.10;94.30
65044;DHT22;51617;48.158;16.464;2023-05-07T07:28:11;18.10;94.50
65044;DHT22;51617;48.158;16.464;2023-05-07T07:30:37;18.20;94.40
65044;DHT22;51617;48.158;16.464;2023-05-07T07:33:03;18.30;94.40
65044;DHT22;51617;48.158;16.464;2023-05-07T07:35:29;18.30;94.40
65044;DHT22;51617;48.158;16.464;2023-05-07T07:37:55;18.20;94.10
65044;DHT22;51617;48.158;16.464;2023-05-07T07:40:21;18.10;94.10
65044;DHT22;51617;48.158;16.464;2023-05-07T07:42:47;18.10;94.40
65044;DHT22;51617;48.158;16.464;2023-05-07T07:45:12;18.00;94.00
65044;DHT22;51617;48.158;16.464;2023-05-07T07:47:39;18.00;94.20
65044;DHT22;51617;48.158;16.464;2023-05-07T07:50:06;18.10;94.30
65044;DHT22;51617;48.158;16.464;2023-05-07T07:52:32;18.20;94.00
65044;DHT22;51617;48.158;16.464;2023-05-07T07:54:58;18.20;93.50
65044;DHT22;51617;48.158;16.464;2023-05-07T07:57:23;18.20;93.90
65044;DHT22;51617;48.158;16.464;2023-05-07T07:59:49;18.30;93.70
65044;DHT22;51617;48.158;16.464;2023-05-07T08:02:16;18.50;93.10
65044;DHT22;51617;48.158;16.464;2023-05-07T08:04:42;18.80;92.90
65044;DHT22;51617;48.158;16.464;2023-05-07T08:07:10;18.90;92.40
65044;DHT22;51617;48.158;16.464;2023-05-07T08:09:39;18.70;91.60
65044;DHT22;51617;48.158;16.464;2023-05-07T08:12:06;18.50;92.20
65044;DHT22;51617;48.158;16.464;2023-05-07T08:14:32;18.50;91.70
65044;DHT22;51617;48.158;16.464;2023-05-07T08:16:58;18.50;91.20
65044;DHT22;51617;48.158;16.464;2023-05-07T08:19:23;18.60;91.50
65044;DHT22;51617;48.158;16.464;2023-05-07T08:21:49;18.70;91.70
65044;DHT22;51617;48.158;16.464;2023-05-07T08:24:15;18.90;91.60
65044;DHT22;51617;48.158;16.464;2023-05-07T08:26:41;19.10;91.40
65044;DHT22;51617;48.158;16.464;2023-05-07T08:29:07;19.10;90.80
65044;DHT22;51617;48.158;16.464;2023-05-07T08:31:33;19.10;90.80
65044;DHT22;51617;48.158;16.464;2023-05-07T08:33:59;19.20;90.80
65044;DHT22;51617;48.158;16.464;2023-05-07T08:36:25;19.20;90.50
65044;DHT22;51617;48.158;16.464;2023-05-07T08:38:51;19.20;90.50
65044;DHT22;51617;48.158;16.464;2023-05-07T08:41:18;19.40;90.00
65044;DHT22;51617;48.158;16.464;2023-05-07T08:43:48;19.40;89.70
65044;DHT22;51617;48.158;16.464;2023-05-07T08:46:20;19.60;90.00
65044;DHT22;51617;48.158;16.464;2023-05-07T08:48:50;19.60;89.70
65044;DHT22;51617;48.158;16.464;2023-05-07T08:51:18;19.60;89.40
65044;DHT22;51617;48.158;16.464;2023-05-07T08:53:44;19.60;88.10
65044;DHT22;51617;48.158;16.464;2023-05-07T08:56:10;19.50;89.00
65044;DHT22;51617;48.158;16.464;2023-05-07T08:58:36;19.50;88.30
65044;DHT22;51617;48.158;16.464;2023-05-07T09:01:28;19.60;88.90
65044;DHT22;51617;48.158;16.464;2023-05-07T09:03:54;19.80;87.40
65044;DHT22;51617;48.158;16.464;2023-05-07T09:06:20;19.90;88.20
65044;DHT22;51617;48.158;16.464;2023-05-07T09:08:53;20.10;87.50
65044;DHT22;51617;48.158;16.464;2023-05-07T09:11:22;20.10;86.70
65044;DHT22;51617;48.158;16.464;2023-05-07T09:13:48;20.20;86.70
65044;DHT22;51617;48.158;16.464;2023-05-07T09:16:15;20.20;85.90
65044;DHT22;51617;48.158;16.464;2023-05-07T09:18:44;20.30;86.80
65044;DHT22;51617;48.158;16.464;2023-05-07T09:21:11;20.20;85.90
65044;DHT22;51617;48.158;16.464;2023-05-07T09:23:37;20.10;86.00
65044;DHT22;51617;48.158;16.464;2023-05-07T09:26:03;20.20;86.50
65044;DHT22;51617;48.158;16.464;2023-05-07T09:28:29;20.40;86.50
65044;DHT22;51617;48.158;16.464;2023-05-07T09:30:55;20.30;85.80
65044;DHT22;51617;48.158;16.464;2023-05-07T09:33:21;20.30;86.40
65044;DHT22;51617;48.158;16.464;2023-05-07T09:35:51;20.10;86.30
65044;DHT22;51617;48.158;16.464;2023-05-07T09:38:18;20.20;86.60
65044;DHT22;51617;48.158;16.464;2023-05-07T09:40:45;20.10;87.30
65044;DHT22;51617;48.158;16.464;2023-05-07T09:43:11;20.10;87.20
65044;DHT22;51617;48.158;16.464;2023-05-07T09:45:38;20.10;87.30
65044;DHT22;51617;48.158;16.464;2023-05-07T09:48:05;20.30;86.60
65044;DHT22;51617;48.158;16.464;2023-05-07T09:50:43;20.10;86.10
65044;DHT22;51617;48.158;16.464;2023-05-07T09:53:10;20.10;86.20
65044;DHT22;51617;48.158;16.464;2023-05-07T09:55:37;20.20;86.20
65044;DHT22;51617;48.158;16.464;2023-05-07T09:58:04;20.40;87.30
65044;DHT22;51617;48.158;16.464;2023-05-07T10:00:30;20.40;87.60
65044;DHT22;51617;48.158;16.464;2023-05-07T10:02:57;20.30;86.50
65044;DHT22;51617;48.158;16.464;2023-05-07T10:05:24;20.10;87.50
65044;DHT22;51617;48.158;16.464;2023-05-07T10:07:50;20.10;86.80
65044;DHT22;51617;48.158;16.464;2023-05-07T10:10:17;20.00;87.20
65044;DHT22;51617;48.158;16.464;2023-05-07T10:12:43;20.00;87.60
65044;DHT22;51617;48.158;16.464;2023-05-07T10:15:12;20.40;87.10
65044;DHT22;51617;48.158;16.464;2023-05-07T10:17:39;20.60;86.20
65044;DHT22;51617;48.158;16.464;2023-05-07T10:20:05;20.60;85.30
65044;DHT22;51617;48.158;16.464;2023-05-07T10:22:37;20.60;85.90
65044;DHT22;51617;48.158;16.464;2023-05-07T10:25:08;20.80;86.00
65044;DHT22;51617;48.158;16.464;2023-05-07T10:27:35;21.10;85.30
65044;DHT22;51617;48.158;16.464;2023-05-07T10:33:09;21.00;83.20
65044;DHT22;51617;48.158;16.464;2023-05-07T10:35:41;21.00;84.50
65044;DHT22;51617;48.158;16.464;2023-05-07T10:38:08;21.10;83.90
65044;DHT22;51617;48.158;16.464;2023-05-07T10:40:34;21.10;83.30
65044;DHT22;51617;48.158;16.464;2023-05-07T10:43:02;21.10;83.80
65044;DHT22;51617;48.158;16.464;2023-05-07T10:45:30;21.10;83.70
65044;DHT22;51617;48.158;16.464;2023-05-07T10:50:30;21.00;83.10
65044;DHT22;51617;48.158;16.464;2023-05-07T10:55:48;21.20;83.30
65044;DHT22;51617;48.158;16.464;2023-05-07T10:58:32;20.90;83.10
65044;DHT22;51617;48.158;16.464;2023-05-07T11:01:01;20.70;83.60
65044;DHT22;51617;48.158;16.464;2023-05-07T11:03:27;20.90;84.30
65044;DHT22;51617;48.158;16.464;2023-05-07T11:06:14;21.00;83.40
65044;DHT22;51617;48.158;16.464;2023-05-07T11:11:18;21.40;83.00
65044;DHT22;51617;48.158;16.464;2023-05-07T11:13:46;21.40;82.40
65044;DHT22;51617;48.158;16.464;2023-05-07T11:16:27;21.40;81.70
65044;DHT22;51617;48.158;16.464;2023-05-07T11:18:54;21.40;81.30
65044;DHT22;51617;48.158;16.464;2023-05-07T11:21:40;21.40;81.20
65044;DHT22;51617;48.158;16.464;2023-05-07T11:24:07;21.40;81.30
65044;DHT22;51617;48.158;16.464;2023-05-07T11:26:48;21.20;79.90
65044;DHT22;51617;48.158;16.464;2023-05-07T11:29:19;21.00;81.00
65044;DHT22;51617;48.158;16.464;2023-05-07T11:31:49;21.00;82.10
65044;DHT22;51617;48.158;16.464;2023-05-07T11:34:24;21.20;81.50
65044;DHT22;51617;48.158;16.464;2023-05-07T11:36:50;21.30;81.10
65044;DHT22;51617;48.158;16.464;2023-05-07T11:39:29;21.20;80.10
65044;DHT22;51617;48.158;16.464;2023-05-07T11:41:55;21.30;80.60
65044;DHT22;51617;48.158;16.464;2023-05-07T11:44:21;21.30;80.90
65044;DHT22;51617;48.158;16.464;2023-05-07T11:46:47;21.40;81.00
65044;DHT22;51617;48.158;16.464;2023-05-07T11:49:13;21.50;81.50
65044;DHT22;51617;48.158;16.464;2023-05-07T11:51:39;21.50;80.20
65044;DHT22;51617;48.158;16.464;2023-05-07T11:54:08;21.70;79.80
65044;DHT22;51617;48.158;16.464;2023-05-07T11:56:36;21.80;79.60
65044;DHT22;51617;48.158;16.464;2023-05-07T11:59:02;21.80;79.70
65044;DHT22;51617;48.158;16.464;2023-05-07T12:01:29;21.90;79.10
65044;DHT22;51617;48.158;16.464;2023-05-07T12:03:55;21.80;78.70
65044;DHT22;51617;48.158;16.464;2023-05-07T12:06:20;21.90;78.60
65044;DHT22;51617;48.158;16.464;2023-05-07T12:08:46;21.80;78.20
65044;DHT22;51617;48.158;16.464;2023-05-07T12:11:16;22.00;78.00
65044;DHT22;51617;48.158;16.464;2023-05-07T12:13:43;21.90;78.40
65044;DHT22;51617;48.158;16.464;2023-05-07T12:16:09;21.80;78.60
65044;DHT22;51617;48.158;16.464;2023-05-07T12:18:36;21.80;78.20
65044;DHT22;51617;48.158;16.464;2023-05-07T12:21:03;22.00;78.60
65044;DHT22;51617;48.158;16.464;2023-05-07T12:23:29;22.20;78.40
65044;DHT22;51617;48.158;16.464;2023-05-07T12:25:55;22.20;77.90
65044;DHT22;51617;48.158;16.464;2023-05-07T12:28:21;22.30;78.10
65044;DHT22;51617;48.158;16.464;2023-05-07T12:30:48;22.30;78.00
65044;DHT22;51617;48.158;16.464;2023-05-07T12:33:23;22.30;79.00
65044;DHT22;51617;48.158;16.464;2023-05-07T12:35:49;22.30;78.20
65044;DHT22;51617;48.158;16.464;2023-05-07T12:38:16;22.30;78.60
65044;DHT22;51617;48.158;16.464;2023-05-07T12:40:46;22.30;77.10
65044;DHT22;51617;48.158;16.464;2023-05-07T12:45:47;22.10;78.30
65044;DHT22;51617;48.158;16.464;2023-05-07T12:48:13;22.20;78.60
65044;DHT22;51617;48.158;16.464;2023-05-07T12:50:39;21.90;78.60
65044;DHT22;51617;48.158;16.464;2023-05-07T12:53:06;21.80;79.60
65044;DHT22;51617;48.158;16.464;2023-05-07T12:55:45;22.20;78.40
65044;DHT22;51617;48.158;16.464;2023-05-07T12:58:28;22.30;77.40
65044;DHT22;51617;48.158;16.464;2023-05-07T13:00:56;22.30;76.30
65044;DHT22;51617;48.158;16.464;2023-05-07T13:03:25;22.00;76.90
65044;DHT22;51617;48.158;16.464;2023-05-07T13:05:52;22.10;77.30
65044;DHT22;51617;48.158;16.464;2023-05-07T13:08:44;22.20;78.70
65044;DHT22;51617;48.158;16.464;2023-05-07T13:11:10;22.50;76.30
65044;DHT22;51617;48.158;16.464;2023-05-07T13:13:37;22.50;75.30
65044;DHT22;51617;48.158;16.464;2023-05-07T13:16:04;22.40;75.30
65044;DHT22;51617;48.158;16.464;2023-05-07T13:18:32;22.50;75.10
65044;DHT22;51617;48.158;16.464;2023-05-07T13:20:58;22.60;75.10
65044;DHT22;51617;48.158;16.464;2023-05-07T13:23:24;22.70;74.60
65044;DHT22;51617;48.158;16.464;2023-05-07T13:25:50;22.90;74.40
65044;DHT22;51617;48.158;16.464;2023-05-07T13:28:17;22.80;73.50
65044;DHT22;51617;48.158;16.464;2023-05-07T13:30:43;22.70;73.80
65044;DHT22;51617;48.158;16.464;2023-05-07T13:33:09;22.60;74.20
65044;DHT22;51617;48.158;16.464;2023-05-07T13:35:35;22.60;74.60
65044;DHT22;51617;48.158;16.464;2023-05-07T13:38:01;22.80;74.60
65044;DHT22;51617;48.158;16.464;2023-05-07T13:40:27;23.00;74.50
65044;DHT22;51617;48.158;16.464;2023-05-07T13:42:53;23.00;73.10
65044;DHT22;51617;48.158;16.464;2023-05-07T13:45:19;23.00;72.70
65044;DHT22;51617;48.158;16.464;2023-05-07T13:47:46;23.00;73.00
65044;DHT22;51617;48.158;16.464;2023-05-07T13:50:12;23.10;72.20
65044;DHT22;51617;48.158;16.464;2023-05-07T13:52:42;23.20;72.90
65044;DHT22;51617;48.158;16.464;2023-05-07T13:55:09;23.30;72.20
65044;DHT22;51617;48.158;16.464;2023-05-07T13:57:36;23.00;71.90
65044;DHT22;51617;48.158;16.464;2023-05-07T14:00:03;22.90;72.10
65044;DHT22;51617;48.158;16.464;2023-05-07T14:02:30;22.80;72.50
65044;DHT22;51617;48.158;16.464;2023-05-07T14:04:56;22.80;72.80
65044;DHT22;51617;48.158;16.464;2023-05-07T14:07:22;22.60;72.00
65044;DHT22;51617;48.158;16.464;2023-05-07T14:09:47;22.60;72.50
65044;DHT22;51617;48.158;16.464;2023-05-07T14:12:13;22.50;72.80
65044;DHT22;51617;48.158;16.464;2023-05-07T14:14:38;22.50;72.50
65044;DHT22;51617;48.158;16.464;2023-05-07T14:17:04;22.40;73.00
65044;DHT22;51617;48.158;16.464;2023-05-07T14:19:30;22.50;73.00
65044;DHT22;51617;48.158;16.464;2023-05-07T14:21:55;22.40;73.20
65044;DHT22;51617;48.158;16.464;2023-05-07T14:24:21;22.30;73.10
65044;DHT22;51617;48.158;16.464;2023-05-07T14:26:47;22.00;73.70
65044;DHT22;51617;48.158;16.464;2023-05-07T14:29:12;21.80;73.80
65044;DHT22;51617;48.158;16.464;2023-05-07T14:31:38;21.70;74.40
65044;DHT22;51617;48.158;16.464;2023-05-07T14:34:04;21.40;74.60
65044;DHT22;51617;48.158;16.464;2023-05-07T14:36:30;21.30;75.10
65044;DHT22;51617;48.158;16.464;2023-05-07T14:38:57;21.10;75.70
65044;DHT22;51617;48.158;16.464;2023-05-07T14:41:24;21.10;75.50
65044;DHT22;51617;48.158;16.464;2023-05-07T14:43:50;21.10;75.80
65044;DHT22;51617;48.158;16.464;2023-05-07T14:46:17;21.00;75.70
65044;DHT22;51617;48.158;16.464;2023-05-07T14:48:47;21.00;76.20
65044;DHT22;51617;48.158;16.464;2023-05-07T14:51:13;21.00;75.90
65044;DHT22;51617;48.158;16.464;2023-05-07T14:53:40;21.00;75.90
65044;DHT22;51617;48.158;16.464;2023-05-07T14:56:06;20.90;75.70
65044;DHT22;51617;48.158;16.464;2023-05-07T14:58:31;20.90;75.90
65044;DHT22;51617;48.158;16.464;2023-05-07T15:00:57;20.90;75.90
65044;DHT22;51617;48.158;16.464;2023-05-07T15:03:24;21.00;76.10
65044;DHT22;51617;48.158;16.464;2023-05-07T15:05:50;21.10;75.50
65044;DHT22;51617;48.158;16.464;2023-05-07T15:08:17;21.20;74.70
65044;DHT22;51617;48.158;16.464;2023-05-07T15:10:43;21.20;74.60
65044;DHT22;51617;48.158;16.464;2023-05-07T15:13:09;21.10;75.00
65044;DHT22;51617;48.158;16.464;2023-05-07T15:15:36;21.00;75.30
65044;DHT22;51617;48.158;16.464;2023-05-07T15:18:02;21.10;75.00
65044;DHT22;51617;48.158;16.464;2023-05-07T15:20:28;21.20;74.40
65044;DHT22;51617;48.158;16.464;2023-05-07T15:22:54;21.40;74.20
65044;DHT22;51617;48.158;16.464;2023-05-07T15:25:20;22.00;73.10
65044;DHT22;51617;48.158;16.464;2023-05-07T15:27:46;22.50;72.70